Time;durP1;ratioP1;P1;durP2;ratioP2;P2;SDS_P1;SDS_P2;PMS_P1;PMS_P2;Temp;Humidity;BMP_temperature;BMP_pressure;BME280_temperature;BME280_humidity;BME280_pressure;Samples;Min_cycle;Max_cycle;Signal;HPM_P1;HPM_P2
2021/12/07 00:01:45;;;;;;;2.72;1.75;;;3.70;75.80;;;;;;5052343;28;20233;-79
2021/12/07 00:04:12;;;;;;;2.22;1.80;;;3.70;78.00;;;;;;5037139;28;20227;-78
2021/12/07 00:06:40;;;;;;;7.65;1.95;;;3.60;79.30;;;;;;5038070;28;20233;-78
2021/12/07 00:09:10;;;;;;;2.03;1.83;;;3.50;81.00;;;;;;5037738;28;20237;-78
2021/12/07 00:11:39;;;;;;;3.05;2.25;;;3.50;82.50;;;;;;5036963;28;20234;-81
2021/12/07 00:14:12;;;;;;;1.77;1.60;;;3.40;84.20;;;;;;5035794;28;20241;-80
2021/12/07 00:16:41;;;;;;;1.98;1.80;;;3.40;85.00;;;;;;5037240;28;20195;-80
2021/12/07 00:19:08;;;;;;;2.20;2.00;;;3.30;87.10;;;;;;5056024;28;20240;-77
2021/12/07 00:21:36;;;;;;;2.17;1.75;;;3.30;88.80;;;;;;5057476;28;20221;-78
2021/12/07 00:24:04;;;;;;;3.92;2.00;;;3.30;90.30;;;;;;5040152;28;20196;-76
2021/12/07 00:26:31;;;;;;;2.25;2.05;;;3.20;90.90;;;;;;5038479;28;20214;-76
2021/12/07 00:29:01;;;;;;;2.55;2.13;;;3.20;91.20;;;;;;5053301;28;20248;-79
2021/12/07 00:31:34;;;;;;;2.38;2.15;;;3.20;91.70;;;;;;5041967;28;20302;-79
2021/12/07 00:34:12;;;;;;;1.90;1.80;;;3.10;92.50;;;;;;5036454;28;20205;-78
2021/12/07 00:36:44;;;;;;;2.83;1.95;;;3.10;93.00;;;;;;5041612;28;20232;-78
2021/12/07 00:39:13;;;;;;;2.80;1.67;;;3.10;94.00;;;;;;5044568;28;20191;-78
2021/12/07 00:41:40;;;;;;;2.55;2.00;;;3.10;94.40;;;;;;5041320;28;20713;-79
2021/12/07 00:44:07;;;;;;;1.55;1.45;;;3.10;94.50;;;;;;5029660;28;20210;-79
2021/12/07 00:46:35;;;;;;;4.28;2.15;;;3.10;94.60;;;;;;5020866;28;20728;-79
2021/12/07 00:49:05;;;;;;;2.30;1.80;;;3.10;95.20;;;;;;5045037;28;20223;-80
2021/12/07 00:51:32;;;;;;;2.08;1.90;;;3.10;95.30;;;;;;5042607;28;20232;-76
2021/12/07 00:53:59;;;;;;;2.33;2.13;;;3.10;95.60;;;;;;5025716;28;20202;-77
2021/12/07 00:56:26;;;;;;;2.35;2.15;;;3.20;95.70;;;;;;5016025;28;20290;-79
2021/12/07 00:58:54;;;;;;;1.98;1.80;;;3.10;95.60;;;;;;5032136;28;20206;-78
2021/12/07 01:01:21;;;;;;;4.68;2.10;;;3.10;96.10;;;;;;5035306;28;20316;-79
2021/12/07 01:03:50;;;;;;;2.67;2.08;;;3.20;96.10;;;;;;5032525;28;20293;-80
2021/12/07 01:06:25;;;;;;;2.88;2.28;;;3.30;96.20;;;;;;5027132;28;20600;-79
2021/12/07 01:25:27;;;;;;;2.15;1.83;;;3.40;95.80;;;;;;5045662;28;20605;-78
2021/12/07 01:27:58;;;;;;;1.55;1.45;;;3.40;95.90;;;;;;5035423;28;20548;-76
2021/12/07 01:30:37;;;;;;;1.80;1.70;;;3.50;95.90;;;;;;5022779;28;20234;-77
2021/12/07 01:33:21;;;;;;;2.28;2.05;;;3.60;96.10;;;;;;5023092;28;20262;-79
2021/12/07 01:36:07;;;;;;;2.45;2.25;;;3.60;95.60;;;;;;5023502;28;20211;-80
2021/12/07 01:39:32;;;;;;;2.78;2.15;;;3.60;95.50;;;;;;5031638;28;20194;-76
2021/12/07 01:41:46;;;;;;;1.83;1.73;;;3.60;95.40;;;;;;5041328;28;20218;-78
2021/12/07 01:44:35;;;;;;;1.70;1.60;;;3.60;95.50;;;;;;5020987;28;20247;-78
2021/12/07 01:47:24;;;;;;;2.92;1.60;;;3.60;95.30;;;;;;5029112;28;20234;-78
2021/12/07 01:50:12;;;;;;;1.80;1.70;;;3.70;95.30;;;;;;5015772;28;20624;-77
2021/12/07 01:52:52;;;;;;;2.90;1.90;;;3.70;95.30;;;;;;5027572;28;20218;-79
2021/12/07 02:00:46;;;;;;;2.50;2.30;;;3.70;95.90;;;;;;4985161;28;20227;-78
2021/12/07 02:03:13;;;;;;;2.65;2.25;;;3.70;96.30;;;;;;5027353;28;20666;-79
2021/12/07 02:05:40;;;;;;;3.58;2.13;;;3.70;96.40;;;;;;5019918;28;20211;-77
2021/12/07 02:08:07;;;;;;;2.38;2.17;;;3.70;96.80;;;;;;5027613;28;20229;-80
2021/12/07 02:10:36;;;;;;;2.33;2.05;;;3.70;97.10;;;;;;5039488;28;20254;-78
2021/12/07 02:13:17;;;;;;;2.78;1.85;;;3.70;97.50;;;;;;5027041;28;20227;-79
2021/12/07 02:15:44;;;;;;;3.83;2.58;;;3.70;97.80;;;;;;5018586;28;20270;-79
2021/12/07 02:18:11;;;;;;;2.53;2.20;;;3.70;98.00;;;;;;5020296;28;20708;-79
2021/12/07 02:20:38;;;;;;;3.10;2.83;;;3.70;98.20;;;;;;5018051;28;20298;-78
2021/12/07 02:23:07;;;;;;;2.30;2.10;;;3.70;98.40;;;;;;5034223;28;20664;-79
2021/12/07 02:25:34;;;;;;;3.35;2.00;;;3.70;98.90;;;;;;5042335;28;20210;-78
2021/12/07 02:28:00;;;;;;;3.00;2.00;;;3.70;99.20;;;;;;5026566;28;20206;-78
2021/12/07 02:30:28;;;;;;;1.98;1.88;;;3.70;99.70;;;;;;5020548;28;20261;-77
2021/12/07 02:32:56;;;;;;;4.22;2.15;;;3.80;99.90;;;;;;5018729;28;20234;-77
2021/12/07 02:35:26;;;;;;;2.75;2.20;;;3.80;99.90;;;;;;5015127;28;20299;-77
2021/12/07 02:37:54;;;;;;;2.45;2.00;;;3.80;99.60;;;;;;5019154;28;20216;-78
2021/12/07 02:40:22;;;;;;;2.65;2.08;;;3.80;98.70;;;;;;5016094;28;20333;-77
2021/12/07 02:42:50;;;;;;;2.72;2.50;;;3.80;98.70;;;;;;5026329;28;20238;-77
2021/12/07 02:45:21;;;;;;;2.30;2.10;;;3.80;99.00;;;;;;5035509;28;20211;-77
2021/12/07 02:47:48;;;;;;;3.20;2.50;;;3.80;99.10;;;;;;5036525;28;20213;-79
2021/12/07 02:50:16;;;;;;;2.00;1.90;;;3.80;99.00;;;;;;5042522;28;20241;-76
2021/12/07 02:52:43;;;;;;;2.80;2.50;;;3.70;99.10;;;;;;5031594;28;20261;-77
2021/12/07 02:55:11;;;;;;;2.80;2.20;;;3.70;99.30;;;;;;5026218;28;20233;-79
2021/12/07 02:57:42;;;;;;;3.95;2.67;;;3.60;99.80;;;;;;5018177;28;20667;-76
2021/12/07 03:00:16;;;;;;;2.38;2.13;;;3.60;99.80;;;;;;5013603;28;20258;-77
2021/12/07 03:02:47;;;;;;;3.20;2.70;;;3.60;99.80;;;;;;5020796;28;20222;-75
2021/12/07 03:05:25;;;;;;;2.97;2.70;;;3.50;99.80;;;;;;5036044;28;20240;-79
2021/12/07 03:08:13;;;;;;;3.03;2.47;;;3.50;99.80;;;;;;5032700;28;20230;-78
2021/12/07 03:27:09;;;;;;;2.50;2.30;;;3.60;99.90;;;;;;5042555;28;20245;-77
2021/12/07 03:29:37;;;;;;;2.88;2.03;;;3.70;99.90;;;;;;5047878;28;20667;-77
2021/12/07 03:32:04;;;;;;;2.78;2.00;;;3.70;99.90;;;;;;5050172;28;20226;-75
2021/12/07 03:34:31;;;;;;;2.08;1.80;;;3.80;99.90;;;;;;5046948;28;20214;-76
2021/12/07 03:36:59;;;;;;;2.88;2.30;;;3.70;99.90;;;;;;5042542;28;20275;-77
2021/12/07 03:39:26;;;;;;;3.00;2.35;;;3.70;99.90;;;;;;5037485;28;20253;-78
2021/12/07 03:41:53;;;;;;;2.28;1.73;;;3.70;99.90;;;;;;5029819;28;20282;-77
2021/12/07 03:44:20;;;;;;;1.90;1.80;;;3.60;99.90;;;;;;5029683;28;20211;-77
2021/12/07 03:46:48;;;;;;;3.88;2.30;;;3.60;99.90;;;;;;5027048;28;20218;-77
2021/12/07 03:49:15;;;;;;;6.30;2.30;;;3.60;99.90;;;;;;5016803;28;20384;-77
2021/12/07 03:51:42;;;;;;;2.83;2.38;;;3.70;99.90;;;;;;5037255;28;20230;-77
2021/12/07 03:54:09;;;;;;;2.35;2.15;;;3.70;99.90;;;;;;5038114;28;20257;-76
2021/12/07 03:56:36;;;;;;;3.65;1.98;;;3.80;99.90;;;;;;5031992;28;20230;-75
2021/12/07 03:59:04;;;;;;;3.00;2.50;;;3.80;99.90;;;;;;5022268;28;20233;-77
2021/12/07 04:01:31;;;;;;;2.60;2.40;;;3.80;99.90;;;;;;5019667;28;20234;-77
2021/12/07 04:04:02;;;;;;;4.47;2.83;;;3.80;99.90;;;;;;5022085;28;20639;-76
2021/12/07 04:06:29;;;;;;;5.95;2.60;;;3.70;99.90;;;;;;5039856;28;20226;-78
2021/12/07 04:08:56;;;;;;;2.75;2.15;;;3.60;99.90;;;;;;5054512;28;20205;-79
2021/12/07 04:11:23;;;;;;;5.00;2.90;;;3.50;99.90;;;;;;5053027;28;20230;-80
2021/12/07 04:13:50;;;;;;;2.55;2.35;;;3.40;99.90;;;;;;5054106;28;20202;-77
2021/12/07 04:16:20;;;;;;;2.63;2.40;;;3.40;99.90;;;;;;5028792;28;20208;-77
2021/12/07 04:18:47;;;;;;;3.67;2.90;;;3.40;99.90;;;;;;5033333;28;20201;-77
2021/12/07 04:21:15;;;;;;;8.50;2.92;;;3.40;99.90;;;;;;5024936;28;20235;-77
2021/12/07 04:23:42;;;;;;;3.45;2.40;;;3.50;99.90;;;;;;5013001;28;20223;-76
2021/12/07 04:26:12;;;;;;;3.45;2.33;;;3.50;99.90;;;;;;5025486;28;20226;-76
2021/12/07 04:28:40;;;;;;;3.58;2.70;;;3.50;99.90;;;;;;5040498;28;20219;-77
2021/12/07 04:31:09;;;;;;;4.32;3.13;;;3.50;99.90;;;;;;5033127;28;20645;-79
2021/12/07 04:33:36;;;;;;;3.10;2.80;;;3.60;99.90;;;;;;5039061;28;20289;-76
2021/12/07 04:36:06;;;;;;;4.97;2.88;;;3.70;99.90;;;;;;5036898;28;20581;-76
2021/12/07 04:38:34;;;;;;;10.25;3.10;;;3.70;99.90;;;;;;5044776;28;20234;-79
2021/12/07 04:41:02;;;;;;;4.95;3.22;;;3.70;99.90;;;;;;5044993;28;20678;-78
2021/12/07 04:43:29;;;;;;;4.45;2.70;;;3.80;99.90;;;;;;5050915;28;20252;-77
2021/12/07 04:57:44;;;;;;;1.92;1.75;;;4.00;99.90;;;;;;4892398;29;20192;-78
2021/12/07 05:00:15;;;;;;;2.72;2.45;;;4.00;99.90;;;;;;4899341;29;20256;-82
2021/12/07 05:02:45;;;;;;;1.80;1.30;;;4.00;99.90;;;;;;4895280;29;20235;-81
2021/12/07 05:05:14;;;;;;;2.08;1.80;;;4.10;99.90;;;;;;4902423;29;20221;-80
2021/12/07 05:07:47;;;;;;;2.28;2.00;;;4.10;99.30;;;;;;4904395;29;20217;-80
2021/12/07 05:10:26;;;;;;;2.30;1.95;;;4.20;98.80;;;;;;4904433;29;20249;-81
2021/12/07 05:13:10;;;;;;;3.78;2.47;;;4.20;98.30;;;;;;4917882;29;20227;-80
2021/12/07 05:18:59;;;;;;;2.30;1.63;;;4.20;97.50;;;;;;4865555;29;20236;-81
2021/12/07 05:24:26;;;;;;;3.50;2.28;;;4.20;96.80;;;;;;4884731;29;20195;-80
2021/12/07 05:37:55;;;;;;;2.40;1.85;;;4.30;96.70;;;;;;4981549;28;20193;-82
2021/12/07 05:40:26;;;;;;;2.97;1.60;;;4.30;96.60;;;;;;4980266;28;20205;-81
2021/12/07 05:42:55;;;;;;;3.55;1.80;;;4.30;96.60;;;;;;4976029;29;20225;-81
2021/12/07 05:45:26;;;;;;;3.50;2.33;;;4.30;96.00;;;;;;4997182;28;20234;-81
2021/12/07 05:51:15;;;;;;;2.75;1.50;;;4.30;95.30;;;;;;4959245;28;20238;-80
2021/12/07 05:53:42;;;;;;;3.28;1.83;;;4.40;95.00;;;;;;4964427;28;20212;-80
2021/12/07 06:02:51;;;;;;;4.55;1.75;;;4.40;94.30;;;;;;4977355;28;20261;-80
2021/12/07 06:05:18;;;;;;;1.65;1.50;;;4.40;93.80;;;;;;4978798;28;20266;-80
2021/12/07 06:07:45;;;;;;;2.25;1.80;;;4.40;93.60;;;;;;4977855;28;20190;-81
2021/12/07 06:10:12;;;;;;;2.72;1.63;;;4.40;93.40;;;;;;4989868;28;20262;-81
2021/12/07 06:12:39;;;;;;;6.78;2.10;;;4.40;93.50;;;;;;4986194;28;20209;-82
2021/12/07 06:15:07;;;;;;;1.98;1.85;;;4.40;93.30;;;;;;4978510;28;20194;-80
2021/12/07 06:17:35;;;;;;;4.07;1.50;;;4.40;93.60;;;;;;4988102;28;20217;-81
2021/12/07 06:20:04;;;;;;;2.90;1.38;;;4.40;93.80;;;;;;4997794;28;20209;-81
2021/12/07 06:22:31;;;;;;;3.28;1.65;;;4.30;94.10;;;;;;4988181;28;20257;-80
2021/12/07 06:24:58;;;;;;;3.47;1.52;;;4.40;94.40;;;;;;4975997;29;20214;-80
2021/12/07 06:27:25;;;;;;;3.67;1.80;;;4.40;94.80;;;;;;4980450;28;20327;-81
2021/12/07 06:29:52;;;;;;;2.63;1.60;;;4.30;94.90;;;;;;4993115;28;20331;-80
2021/12/07 06:32:20;;;;;;;1.63;1.40;;;4.30;95.00;;;;;;4996912;28;20205;-81
2021/12/07 06:34:48;;;;;;;2.03;1.83;;;4.20;95.30;;;;;;4997310;28;20193;-82
2021/12/07 06:37:18;;;;;;;1.45;1.33;;;4.20;95.50;;;;;;4993203;28;20307;-81
2021/12/07 06:39:46;;;;;;;3.00;1.83;;;4.20;96.10;;;;;;4978926;28;20193;-81
2021/12/07 06:42:13;;;;;;;2.70;1.75;;;4.10;96.10;;;;;;4983933;28;20213;-81
2021/12/07 06:44:40;;;;;;;2.97;1.70;;;4.20;96.50;;;;;;4998374;28;20225;-82
2021/12/07 06:47:08;;;;;;;4.25;1.60;;;4.10;96.50;;;;;;4994803;28;20284;-81
2021/12/07 06:49:35;;;;;;;2.10;1.63;;;4.00;96.50;;;;;;4978052;28;20201;-80
2021/12/07 06:52:03;;;;;;;4.55;2.17;;;4.00;96.50;;;;;;4991438;28;20189;-80
2021/12/07 06:54:31;;;;;;;2.85;1.70;;;4.00;96.70;;;;;;4997876;28;20222;-81
2021/12/07 06:56:58;;;;;;;1.80;1.70;;;4.00;96.70;;;;;;4997293;28;20221;-81
2021/12/07 06:59:25;;;;;;;6.35;1.95;;;3.90;96.50;;;;;;4995888;28;20293;-81
2021/12/07 07:01:52;;;;;;;3.10;2.10;;;3.90;96.50;;;;;;4984322;28;20220;-84
2021/12/07 07:04:20;;;;;;;4.82;2.25;;;3.80;96.80;;;;;;4978697;28;20216;-82
2021/12/07 07:06:50;;;;;;;8.27;2.70;;;3.80;96.90;;;;;;4962086;28;20214;-82
2021/12/07 07:09:18;;;;;;;4.30;1.75;;;3.80;97.10;;;;;;4978624;28;20241;-81
2021/12/07 07:11:47;;;;;;;2.25;1.83;;;3.80;97.20;;;;;;4977544;28;20246;-82
2021/12/07 07:14:16;;;;;;;6.68;2.65;;;3.80;97.00;;;;;;4978659;28;20217;-80
2021/12/07 07:16:44;;;;;;;4.20;2.20;;;3.80;97.30;;;;;;4978580;28;20229;-82
2021/12/07 07:19:11;;;;;;;2.38;2.17;;;3.80;97.30;;;;;;4985153;28;20185;-81
2021/12/07 07:21:39;;;;;;;4.05;2.00;;;3.80;97.10;;;;;;4996528;28;20199;-82
2021/12/07 07:24:07;;;;;;;2.53;2.00;;;3.80;97.10;;;;;;4978655;28;20214;-80
2021/12/07 07:26:34;;;;;;;4.78;2.00;;;3.70;97.10;;;;;;4979150;28;20234;-80
2021/12/07 07:29:02;;;;;;;2.42;2.13;;;3.70;97.50;;;;;;4996786;28;20261;-81
2021/12/07 07:31:30;;;;;;;3.15;2.38;;;3.70;97.90;;;;;;4991265;28;20439;-81
2021/12/07 07:33:57;;;;;;;3.70;2.17;;;3.70;97.80;;;;;;4997847;28;20216;-79
2021/12/07 07:36:24;;;;;;;4.57;2.22;;;3.70;98.00;;;;;;4979848;28;20219;-81
2021/12/07 07:38:51;;;;;;;4.20;2.10;;;3.70;98.10;;;;;;4978617;28;20198;-80
2021/12/07 07:41:18;;;;;;;3.42;1.90;;;3.80;98.20;;;;;;4989255;28;20209;-80
2021/12/07 07:43:45;;;;;;;4.40;2.80;;;3.80;97.80;;;;;;4978571;28;20205;-80
2021/12/07 07:46:14;;;;;;;6.28;2.20;;;3.90;97.50;;;;;;4978369;28;20220;-81
2021/12/07 09:00:09;;;;;;;4.15;2.13;;;5.30;79.70;;;;;;5016277;28;20215;-79
2021/12/07 09:02:36;;;;;;;10.52;2.50;;;5.20;79.60;;;;;;4993713;28;20209;-79
2021/12/07 09:05:03;;;;;;;8.43;2.55;;;5.30;79.20;;;;;;4984727;28;20215;-80
2021/12/07 09:07:30;;;;;;;8.50;2.35;;;5.40;79.00;;;;;;5015372;23;20280;-79
2021/12/07 09:09:58;;;;;;;3.78;2.08;;;5.50;78.70;;;;;;4982507;28;20669;-78
2021/12/07 09:12:25;;;;;;;8.30;2.53;;;5.60;77.70;;;;;;4981604;28;20264;-78
2021/12/07 09:14:53;;;;;;;11.00;2.17;;;5.70;76.20;;;;;;4990159;28;20209;-79
2021/12/07 09:17:20;;;;;;;4.72;1.90;;;5.70;75.10;;;;;;4984508;28;20224;-78
2021/12/07 09:19:48;;;;;;;9.80;2.13;;;5.80;74.70;;;;;;4981555;28;20205;-78
2021/12/07 09:22:15;;;;;;;6.05;2.47;;;5.80;74.70;;;;;;4975697;28;20217;-79
2021/12/07 09:24:42;;;;;;;4.82;2.08;;;5.80;73.70;;;;;;4979085;28;20547;-78
2021/12/07 09:27:11;;;;;;;5.57;1.70;;;5.80;73.70;;;;;;4981087;28;20271;-79
2021/12/07 09:29:38;;;;;;;3.92;1.92;;;5.80;73.70;;;;;;4984410;28;20202;-79
2021/12/07 09:32:05;;;;;;;3.78;1.60;;;5.80;73.70;;;;;;4965033;29;20237;-79
2021/12/07 09:34:33;;;;;;;5.60;2.65;;;5.80;73.70;;;;;;4967163;28;20220;-79
2021/12/07 09:37:00;;;;;;;7.70;2.67;;;5.90;73.80;;;;;;4986646;28;20229;-78
2021/12/07 09:39:27;;;;;;;6.95;2.72;;;5.90;74.40;;;;;;4986435;28;20240;-77
2021/12/07 09:41:55;;;;;;;9.77;2.40;;;6.00;73.50;;;;;;4966204;29;20705;-78
2021/12/07 09:44:26;;;;;;;5.85;2.35;;;6.00;72.70;;;;;;4966389;28;20206;-80
2021/12/07 09:46:53;;;;;;;6.97;2.72;;;6.10;72.00;;;;;;4968423;28;20248;-80
2021/12/07 09:49:20;;;;;;;3.17;2.03;;;6.10;70.90;;;;;;4969001;29;20281;-78
2021/12/07 09:51:49;;;;;;;6.45;2.15;;;6.00;71.30;;;;;;4973993;29;20258;-79
2021/12/07 09:54:16;;;;;;;2.60;2.40;;;6.10;71.50;;;;;;4974505;29;20206;-80
2021/12/07 09:56:44;;;;;;;6.68;3.95;;;6.10;71.00;;;;;;4987789;28;20294;-79
2021/12/07 09:59:13;;;;;;;6.80;2.28;;;6.10;71.00;;;;;;4988037;28;20221;-80
2021/12/07 10:01:42;;;;;;;7.30;3.00;;;6.10;69.90;;;;;;4984925;28;20206;-80
2021/12/07 10:04:10;;;;;;;5.63;5.15;;;6.00;70.00;;;;;;4982767;28;20239;-81
2021/12/07 10:06:37;;;;;;;5.70;3.67;;;5.90;70.20;;;;;;4970855;28;20344;-79
2021/12/07 10:09:05;;;;;;;6.30;2.17;;;5.90;70.70;;;;;;4966851;29;20273;-79
2021/12/07 10:11:33;;;;;;;4.03;2.05;;;5.80;70.10;;;;;;4967174;28;20221;-81
2021/12/07 10:14:01;;;;;;;2.55;1.77;;;5.80;70.60;;;;;;4978919;28;20220;-80
2021/12/07 10:16:28;;;;;;;7.00;5.32;;;5.80;70.40;;;;;;4997677;28;20228;-78
2021/12/07 10:18:57;;;;;;;8.43;2.53;;;5.80;70.30;;;;;;4996645;28;20232;-84
2021/12/07 10:21:26;;;;;;;2.50;2.03;;;5.80;69.80;;;;;;4996614;28;20209;-82
2021/12/07 10:23:59;;;;;;;3.63;1.95;;;5.80;69.40;;;;;;4988163;28;20255;-79
2021/12/07 10:26:29;;;;;;;2.50;2.00;;;5.80;69.40;;;;;;4990540;28;20328;-84
2021/12/07 10:28:58;;;;;;;6.60;2.58;;;5.90;68.50;;;;;;4985465;28;20201;-81
2021/12/07 10:31:33;;;;;;;4.55;1.77;;;5.90;66.70;;;;;;4985258;28;20255;-82
2021/12/07 10:34:14;;;;;;;4.32;2.25;;;6.00;65.30;;;;;;4986740;28;20224;-81
2021/12/07 10:36:43;;;;;;;9.55;3.55;;;6.00;65.10;;;;;;4988937;28;20240;-80
2021/12/07 10:39:15;;;;;;;6.50;4.88;;;6.00;65.10;;;;;;4976824;28;20270;-80
2021/12/07 10:41:46;;;;;;;7.13;2.70;;;6.00;65.10;;;;;;4969044;29;20206;-81
2021/12/07 10:44:14;;;;;;;4.72;2.10;;;6.10;65.20;;;;;;4981093;28;20209;-79
2021/12/07 10:46:52;;;;;;;5.53;2.38;;;6.10;65.00;;;;;;4993561;28;20236;-78
2021/12/07 10:49:50;;;;;;;5.13;2.40;;;6.10;65.20;;;;;;4993522;28;20209;-80
2021/12/07 10:52:25;;;;;;;5.35;2.45;;;6.20;64.30;;;;;;4978848;28;20228;-83
2021/12/07 10:54:56;;;;;;;5.30;1.75;;;6.20;62.80;;;;;;4970887;29;20244;-80
2021/12/07 10:57:26;;;;;;;8.32;2.20;;;6.30;62.20;;;;;;4966418;29;20269;-81
2021/12/07 11:00:00;;;;;;;2.50;1.85;;;6.30;61.90;;;;;;4965712;29;20248;-80
2021/12/07 11:02:33;;;;;;;6.68;2.80;;;6.30;62.00;;;;;;4983269;28;20216;-81
2021/12/07 11:05:03;;;;;;;3.05;1.75;;;6.30;62.20;;;;;;4983677;28;20641;-83
2021/12/07 11:07:31;;;;;;;6.05;2.20;;;6.40;61.40;;;;;;4982333;28;20239;-81
2021/12/07 11:10:09;;;;;;;13.20;3.25;;;6.50;60.40;;;;;;4982136;28;20665;-81
2021/12/07 11:12:46;;;;;;;3.53;1.90;;;6.50;59.80;;;;;;4983212;28;20225;-81
2021/12/07 11:15:23;;;;;;;4.90;1.70;;;6.70;59.60;;;;;;4964665;28;20580;-81
2021/12/07 11:17:51;;;;;;;2.60;1.90;;;6.80;57.20;;;;;;4984857;28;20259;-79
2021/12/07 11:20:21;;;;;;;9.07;2.10;;;7.00;57.10;;;;;;4969652;28;20209;-80
2021/12/07 11:22:52;;;;;;;5.88;1.70;;;7.30;56.30;;;;;;4963151;29;20234;-81
2021/12/07 11:25:53;;;;;;;2.38;1.65;;;7.30;54.80;;;;;;4964111;29;20213;-83
2021/12/07 11:31:21;;;;;;;3.65;1.92;;;7.40;55.00;;;;;;4986215;28;20622;-82
2021/12/07 11:33:49;;;;;;;4.10;2.55;;;7.50;55.30;;;;;;4978091;28;20210;-79
2021/12/07 11:36:21;;;;;;;6.05;2.78;;;7.70;54.50;;;;;;4966567;29;20306;-82
2021/12/07 11:38:54;;;;;;;8.90;2.03;;;7.70;52.70;;;;;;4973684;28;20197;-79
2021/12/07 11:41:24;;;;;;;2.15;1.65;;;7.80;52.20;;;;;;4980666;28;20205;-81
2021/12/07 11:43:58;;;;;;;11.68;2.35;;;7.70;51.90;;;;;;4965879;28;20234;-80
2021/12/07 11:46:27;;;;;;;6.13;1.63;;;7.70;52.20;;;;;;4965668;28;20221;-80
2021/12/07 11:49:13;;;;;;;11.80;10.02;;;7.60;51.00;;;;;;4966946;29;20214;-81
2021/12/07 11:51:44;;;;;;;3.97;1.60;;;7.40;51.60;;;;;;4971348;28;20320;-78
2021/12/07 11:54:11;;;;;;;3.75;2.60;;;7.20;51.90;;;;;;4982303;28;20272;-78
2021/12/07 11:56:40;;;;;;;4.10;1.90;;;7.20;52.60;;;;;;4984620;28;20638;-79
2021/12/07 11:59:07;;;;;;;3.97;1.83;;;7.10;52.50;;;;;;4982940;28;20213;-77
2021/12/07 12:01:35;;;;;;;6.15;1.65;;;7.10;52.50;;;;;;4974409;28;20198;-80
2021/12/07 12:04:03;;;;;;;7.70;7.00;;;7.10;52.90;;;;;;4962379;29;20562;-78
2021/12/07 12:06:30;;;;;;;5.57;2.75;;;7.10;52.50;;;;;;4962943;29;20249;-83
2021/12/07 12:08:59;;;;;;;5.85;1.50;;;7.20;52.90;;;;;;4982871;28;20237;-81
2021/12/07 12:11:37;;;;;;;7.53;1.65;;;7.20;52.20;;;;;;4986647;28;20253;-80
2021/12/07 12:14:16;;;;;;;3.95;1.88;;;7.10;51.70;;;;;;4977232;28;20296;-82
2021/12/07 12:16:51;;;;;;;4.22;2.50;;;7.10;51.60;;;;;;4973788;29;20287;-82
2021/12/07 12:19:29;;;;;;;1.80;1.23;;;7.20;52.10;;;;;;4974069;29;20205;-81
2021/12/07 12:22:01;;;;;;;3.55;1.92;;;7.20;52.40;;;;;;4980771;28;20208;-83
2021/12/07 12:24:38;;;;;;;2.58;1.48;;;7.20;52.60;;;;;;4997066;28;20178;-83
2021/12/07 12:27:08;;;;;;;4.18;1.70;;;7.30;51.90;;;;;;4997514;28;20227;-83
2021/12/07 12:32:11;;;;;;;2.85;2.10;;;7.40;51.10;;;;;;5102431;23;20710;-84
2021/12/07 12:34:47;;;;;;;2.45;1.55;;;7.50;50.90;;;;;;5054668;28;20207;-83
2021/12/07 12:37:19;;;;;;;2.97;1.65;;;7.60;50.30;;;;;;5054764;28;20234;-83
2021/12/07 12:39:51;;;;;;;4.97;3.17;;;7.60;49.70;;;;;;5055781;28;20255;-84
2021/12/07 12:42:29;;;;;;;3.53;1.50;;;7.60;49.50;;;;;;5056168;28;20195;-82
2021/12/07 12:45:03;;;;;;;2.63;1.33;;;7.60;49.80;;;;;;5073589;23;20304;-81
2021/12/07 12:47:32;;;;;;;2.95;1.65;;;7.50;50.90;;;;;;5060972;28;20233;-78
2021/12/07 12:50:13;;;;;;;6.43;1.85;;;7.50;50.40;;;;;;5060475;28;20804;-80
2021/12/07 12:52:43;;;;;;;9.48;2.55;;;7.40;50.20;;;;;;5068364;28;20285;-79
2021/12/07 12:55:36;;;;;;;2.90;1.70;;;7.50;50.40;;;;;;5073209;28;20328;-77
2021/12/07 12:58:07;;;;;;;4.88;1.63;;;7.50;49.60;;;;;;5076841;28;20210;-80
2021/12/07 13:01:16;;;;;;;3.55;1.55;;;7.50;49.40;;;;;;5069855;28;20211;-77
2021/12/07 13:03:59;;;;;;;5.45;1.20;;;7.50;49.20;;;;;;5044493;28;20206;-79
2021/12/07 13:06:46;;;;;;;2.00;1.08;;;7.40;48.00;;;;;;5063093;28;20281;-78
2021/12/07 13:09:37;;;;;;;4.10;1.48;;;7.30;49.20;;;;;;5061397;28;20225;-79
2021/12/07 13:12:08;;;;;;;2.40;1.50;;;7.20;49.50;;;;;;5058638;28;20273;-79
2021/12/07 13:14:51;;;;;;;4.68;1.38;;;7.20;50.10;;;;;;5070016;28;20222;-78
2021/12/07 13:17:21;;;;;;;4.53;3.10;;;7.30;50.60;;;;;;5055267;28;20263;-79
2021/12/07 13:20:09;;;;;;;4.88;1.85;;;7.30;50.40;;;;;;5044524;28;20230;-79
2021/12/07 13:22:37;;;;;;;3.22;1.60;;;7.30;50.70;;;;;;5054974;28;20233;-80
2021/12/07 13:25:08;;;;;;;6.05;2.75;;;7.10;51.10;;;;;;5059662;28;20223;-78
2021/12/07 13:27:37;;;;;;;3.65;2.80;;;7.20;51.40;;;;;;5058572;28;20218;-77
2021/12/07 13:30:07;;;;;;;6.22;4.65;;;7.10;51.70;;;;;;5046951;28;20230;-78
2021/12/07 13:32:34;;;;;;;4.55;2.15;;;7.10;52.10;;;;;;5038672;28;20219;-79
2021/12/07 13:35:03;;;;;;;5.30;2.13;;;7.10;51.60;;;;;;5048426;28;20223;-78
2021/12/07 13:37:45;;;;;;;4.53;1.35;;;7.10;51.10;;;;;;5051733;28;20577;-78
2021/12/07 13:40:21;;;;;;;6.57;2.40;;;7.00;50.40;;;;;;5053019;28;20257;-78
2021/12/07 13:42:52;;;;;;;2.38;1.90;;;7.00;50.70;;;;;;5052880;28;20237;-78
2021/12/07 13:45:20;;;;;;;2.13;1.25;;;7.00;49.20;;;;;;5058450;28;20250;-77
2021/12/07 13:47:51;;;;;;;3.83;2.40;;;7.00;49.00;;;;;;5061343;28;20228;-78
2021/12/07 13:50:22;;;;;;;5.13;1.80;;;7.10;49.30;;;;;;5063173;28;20202;-78
2021/12/07 13:52:52;;;;;;;6.82;2.17;;;7.10;48.70;;;;;;5066972;28;20276;-78
2021/12/07 13:55:21;;;;;;;2.95;1.70;;;7.10;48.60;;;;;;5069425;28;20227;-79
2021/12/07 13:57:51;;;;;;;2.08;1.45;;;7.00;48.60;;;;;;5069984;28;20305;-79
2021/12/07 14:00:20;;;;;;;7.30;2.90;;;7.00;49.00;;;;;;5069894;28;20202;-76
2021/12/07 14:02:50;;;;;;;4.65;4.18;;;7.00;49.60;;;;;;5074384;28;20211;-77
2021/12/07 14:05:20;;;;;;;17.30;15.75;;;7.00;48.20;;;;;;5072934;28;20222;-77
2021/12/07 14:07:48;;;;;;;5.35;2.60;;;7.00;47.70;;;;;;5074674;28;20206;-78
2021/12/07 14:10:18;;;;;;;7.85;2.60;;;6.90;47.60;;;;;;5071546;28;20203;-77
2021/12/07 14:12:47;;;;;;;2.50;1.30;;;6.80;47.50;;;;;;5053798;28;20219;-79
2021/12/07 14:15:20;;;;;;;3.55;2.05;;;6.80;47.50;;;;;;5048920;28;20282;-80
2021/12/07 14:17:49;;;;;;;3.75;2.47;;;6.90;47.60;;;;;;5044679;28;20271;-77
2021/12/07 14:20:38;;;;;;;4.53;2.95;;;6.80;47.50;;;;;;5054747;28;20234;-79
2021/12/07 14:23:20;;;;;;;2.35;0.98;;;6.80;47.50;;;;;;5049121;28;20210;-79
2021/12/07 14:25:54;;;;;;;15.35;13.20;;;6.80;47.50;;;;;;5068807;28;20253;-78
2021/12/07 14:28:26;;;;;;;5.65;1.63;;;6.80;47.50;;;;;;5074768;28;20221;-79
2021/12/07 14:30:58;;;;;;;20.60;17.00;;;6.80;47.50;;;;;;5057729;28;20230;-79
2021/12/07 14:33:25;;;;;;;3.90;2.00;;;6.90;47.60;;;;;;5053891;28;20239;-78
2021/12/07 14:35:52;;;;;;;6.88;5.80;;;6.80;47.50;;;;;;5069321;28;20223;-77
2021/12/07 14:38:19;;;;;;;6.47;3.47;;;6.70;47.40;;;;;;5066048;28;20294;-77
2021/12/07 14:40:46;;;;;;;5.95;1.30;;;6.60;47.20;;;;;;5065461;28;20206;-77
2021/12/07 14:43:13;;;;;;;5.55;2.60;;;6.50;47.20;;;;;;5069445;28;20194;-77
2021/12/07 14:45:40;;;;;;;3.50;1.70;;;6.50;47.20;;;;;;5057791;28;20244;-80
2021/12/07 14:48:08;;;;;;;4.30;2.25;;;6.50;47.20;;;;;;5055402;28;20206;-79
2021/12/07 14:50:36;;;;;;;9.10;7.95;;;6.50;47.20;;;;;;5057086;28;20230;-77
2021/12/07 14:53:03;;;;;;;5.88;3.42;;;6.50;47.80;;;;;;5056845;28;20698;-78
2021/12/07 14:55:30;;;;;;;2.75;2.10;;;6.60;47.70;;;;;;5056809;28;20285;-77
2021/12/07 14:57:57;;;;;;;2.67;1.42;;;6.50;48.20;;;;;;5047410;28;20270;-78
2021/12/07 15:00:24;;;;;;;4.38;3.47;;;6.60;48.10;;;;;;5049572;28;20625;-76
2021/12/07 15:02:52;;;;;;;6.13;3.58;;;6.60;47.30;;;;;;5055196;28;20674;-77
2021/12/07 15:05:20;;;;;;;8.45;5.55;;;6.70;47.60;;;;;;5055942;28;20227;-78
2021/12/07 15:07:47;;;;;;;4.00;1.73;;;6.80;47.50;;;;;;5053838;28;20232;-77
2021/12/07 15:10:18;;;;;;;1.88;1.40;;;6.80;47.00;;;;;;5047339;28;20285;-77
2021/12/07 15:12:47;;;;;;;3.88;3.47;;;6.70;47.40;;;;;;5057585;28;20222;-77
2021/12/07 15:15:14;;;;;;;6.30;2.63;;;6.70;47.40;;;;;;5056561;28;20249;-77
2021/12/07 15:17:41;;;;;;;4.18;1.85;;;6.50;47.20;;;;;;5063772;28;20220;-78
2021/12/07 15:20:11;;;;;;;4.93;2.47;;;6.40;47.10;;;;;;5053832;28;20199;-78
2021/12/07 15:22:41;;;;;;;2.78;2.00;;;6.30;48.10;;;;;;5037682;28;20207;-76
2021/12/07 15:25:12;;;;;;;3.83;2.00;;;6.30;48.30;;;;;;5050063;28;20232;-77
2021/12/07 15:27:39;;;;;;;3.63;2.10;;;6.20;48.00;;;;;;5055662;28;20232;-77
2021/12/07 15:30:06;;;;;;;4.22;1.50;;;6.20;47.80;;;;;;5055589;28;20206;-79
2021/12/07 15:32:33;;;;;;;3.85;1.35;;;6.10;48.00;;;;;;5049852;28;20238;-78
2021/12/07 15:35:00;;;;;;;4.45;1.25;;;5.90;48.50;;;;;;5037672;28;20714;-80
2021/12/07 15:37:28;;;;;;;3.67;1.77;;;5.80;49.00;;;;;;5047313;28;20270;-76
2021/12/07 15:39:58;;;;;;;3.75;1.70;;;5.70;49.80;;;;;;5055367;28;20214;-77
2021/12/07 15:42:27;;;;;;;8.23;1.80;;;5.70;50.60;;;;;;5054958;28;20294;-77
2021/12/07 15:44:57;;;;;;;4.60;2.35;;;5.60;50.60;;;;;;5056020;28;20224;-77
2021/12/07 15:47:26;;;;;;;4.18;2.70;;;5.60;50.70;;;;;;5053214;28;20190;-77
2021/12/07 15:49:55;;;;;;;2.92;1.80;;;5.60;50.80;;;;;;5063172;28;20198;-78